createdAt,value
2019-01-06T00:02:47.484Z,-6.46
2019-01-06T00:08:23.058Z,-6.34
2019-01-06T00:13:46.466Z,-6.43
2019-01-06T00:19:19.165Z,-6.70
2019-01-06T00:24:41.259Z,-6.72
2019-01-06T00:30:13.150Z,-6.64
2019-01-06T00:35:44.370Z,-6.87
2019-01-06T00:41:20.029Z,-7.04
2019-01-06T00:46:47.210Z,-7.37
2019-01-06T00:52:09.303Z,-7.42
2019-01-06T00:57:29.663Z,-7.55
2019-01-06T01:02:51.368Z,-7.24
2019-01-06T01:08:18.383Z,-7.44
2019-01-06T01:13:47.881Z,-7.62
2019-01-06T01:19:29.632Z,-7.69
2019-01-06T01:24:55.743Z,-7.70
2019-01-06T01:30:17.739Z,-7.82
2019-01-06T01:35:50.148Z,-7.95
2019-01-06T01:41:21.343Z,-7.91
2019-01-06T01:46:55.155Z,-8.02
2019-01-06T01:52:17.678Z,-8.00
2019-01-06T01:57:40.000Z,-7.99
2019-01-06T02:03:02.397Z,-7.98
2019-01-06T02:08:18.365Z,-8.15
2019-01-06T02:13:44.647Z,-8.14
2019-01-06T02:19:06.382Z,-8.22
2019-01-06T02:24:29.813Z,-8.07
2019-01-06T02:29:47.729Z,-8.42
2019-01-06T02:35:17.173Z,-8.38
2019-01-06T02:40:40.705Z,-8.38
2019-01-06T02:46:01.284Z,-8.49
2019-01-06T02:51:25.651Z,-8.44
2019-01-06T02:56:48.197Z,-8.59
2019-01-06T03:02:21.678Z,-8.59
2019-01-06T03:07:45.201Z,-8.55
2019-01-06T03:13:20.743Z,-8.36
2019-01-06T03:18:50.275Z,-8.48
2019-01-06T03:24:20.056Z,-8.66
2019-01-06T03:29:42.179Z,-8.82
2019-01-06T03:35:08.425Z,-8.92
2019-01-06T03:40:44.540Z,-8.95
2019-01-06T03:46:07.059Z,-9.02
2019-01-06T03:51:31.366Z,-8.97
2019-01-06T03:57:10.326Z,-9.05
2019-01-06T04:02:40.051Z,-8.91
2019-01-06T04:08:04.582Z,-8.54
2019-01-06T04:13:26.913Z,-8.18
2019-01-06T04:18:53.408Z,-7.80
2019-01-06T04:24:28.576Z,-7.67
2019-01-06T04:29:51.164Z,-7.65
2019-01-06T04:35:13.261Z,-7.32
2019-01-06T04:40:45.722Z,-7.20
2019-01-06T04:46:17.889Z,-7.26
2019-01-06T04:51:44.855Z,-7.23
2019-01-06T04:57:07.828Z,-7.33
2019-01-06T05:02:31.088Z,-7.29
2019-01-06T05:07:53.416Z,-7.20
2019-01-06T05:13:15.579Z,-6.89
2019-01-06T05:18:45.047Z,-6.73
2019-01-06T05:24:07.626Z,-6.52
2019-01-06T05:29:29.619Z,-6.22
2019-01-06T05:35:05.351Z,-6.23
2019-01-06T05:40:37.583Z,-6.62
2019-01-06T05:46:07.417Z,-6.55
2019-01-06T05:51:29.727Z,-6.24
2019-01-06T05:56:53.572Z,-6.23
2019-01-06T06:02:15.980Z,-6.13
2019-01-06T06:07:52.055Z,-5.99
2019-01-06T06:13:21.055Z,-5.95
2019-01-06T06:18:47.448Z,-5.95
2019-01-06T06:24:17.925Z,-5.66
2019-01-06T06:29:56.564Z,-5.22
2019-01-06T06:35:29.006Z,-5.38
2019-01-06T06:41:01.913Z,-5.03
2019-01-06T06:46:24.264Z,-4.87
2019-01-06T06:51:59.791Z,-4.77
2019-01-06T06:58:18.541Z,-4.52
2019-01-06T07:03:48.895Z,-4.34
2019-01-06T07:09:11.676Z,-4.05
2019-01-06T07:14:42.621Z,-3.90
2019-01-06T07:20:07.872Z,-3.69
2019-01-06T07:25:30.090Z,-3.52
2019-01-06T07:30:50.437Z,-3.32
2019-01-06T07:36:25.820Z,-3.13
2019-01-06T07:41:48.155Z,-3.08
2019-01-06T07:47:17.630Z,-2.83
2019-01-06T07:52:39.298Z,-2.57
2019-01-06T07:58:09.716Z,-2.44
2019-01-06T08:03:51.768Z,-2.29
2019-01-06T08:09:15.429Z,-2.10
2019-01-06T08:14:38.948Z,-1.91
2019-01-06T08:20:08.548Z,-1.69
2019-01-06T08:25:30.900Z,-1.67
2019-01-06T08:31:03.488Z,-1.82
2019-01-06T08:36:35.990Z,-1.79
2019-01-06T08:42:05.520Z,-1.76
2019-01-06T08:47:34.379Z,-1.71
2019-01-06T08:52:57.895Z,-1.73
2019-01-06T08:58:17.086Z,-1.81
2019-01-06T09:03:41.959Z,-1.89
2019-01-06T09:09:14.529Z,-1.80
2019-01-06T09:14:40.949Z,-1.80
2019-01-06T09:20:07.347Z,-1.66
2019-01-06T09:25:31.034Z,-2.15
2019-01-06T09:30:58.353Z,-2.35
2019-01-06T09:36:20.745Z,-2.29
2019-01-06T09:42:03.089Z,-2.11
2019-01-06T09:47:27.114Z,-2.12
2019-01-06T09:52:53.761Z,-2.05
2019-01-06T09:58:15.918Z,-2.09
2019-01-06T10:03:48.170Z,-1.97
2019-01-06T10:09:10.815Z,-1.97
2019-01-06T10:14:34.642Z,-2.05
2019-01-06T10:20:03.589Z,-2.35
2019-01-06T10:25:37.420Z,-2.39
2019-01-06T10:31:16.164Z,-2.30
2019-01-06T10:36:46.611Z,-2.42
2019-01-06T10:42:22.050Z,-2.31
2019-01-06T10:47:57.589Z,-2.07
2019-01-06T10:53:24.111Z,-1.87
2019-01-06T10:59:02.593Z,-1.81
2019-01-06T11:04:25.065Z,-1.61
2019-01-06T11:10:03.791Z,-1.78
2019-01-06T11:15:30.233Z,-1.67
2019-01-06T11:20:52.884Z,-1.57
2019-01-06T11:26:32.058Z,-1.32
2019-01-06T11:32:07.719Z,-1.26
2019-01-06T11:37:30.920Z,-1.24
2019-01-06T11:42:57.217Z,-1.04
2019-01-06T11:48:19.396Z,-0.97
2019-01-06T11:53:46.024Z,-0.81
2019-01-06T11:59:12.562Z,-0.67
2019-01-06T12:04:36.142Z,-0.45
2019-01-06T12:10:05.885Z,-0.73
2019-01-06T12:15:28.176Z,-0.83
2019-01-06T12:20:53.305Z,-0.91
2019-01-06T12:26:19.553Z,-0.76
2019-01-06T12:31:49.112Z,-0.73
2019-01-06T12:37:12.556Z,-1.16
2019-01-06T12:42:39.517Z,-0.77
2019-01-06T12:48:12.408Z,-0.45
2019-01-06T12:53:39.120Z,-0.26
2019-01-06T12:59:14.085Z,-0.27
2019-01-06T13:04:47.553Z,-0.14
2019-01-06T13:10:20.054Z,-0.14
2019-01-06T13:15:45.248Z,-0.22
2019-01-06T13:21:08.642Z,-0.18
2019-01-06T13:26:34.801Z,-0.27
2019-01-06T13:31:58.325Z,-0.22
2019-01-06T13:37:20.303Z,-0.13
2019-01-06T13:42:49.760Z,-0.22
2019-01-06T13:48:13.644Z,-0.34
2019-01-06T13:53:36.120Z,-0.28
2019-01-06T13:58:58.850Z,-0.39
2019-01-06T14:04:25.078Z,-0.47
2019-01-06T14:09:48.824Z,-0.62
2019-01-06T14:15:11.048Z,-0.61
2019-01-06T14:20:28.727Z,-0.54
2019-01-06T14:25:58.031Z,-0.59
2019-01-06T14:31:39.914Z,-0.62
2019-01-06T14:37:03.173Z,-0.56
2019-01-06T14:42:45.776Z,-0.43
2019-01-06T14:48:09.611Z,-0.49
2019-01-06T14:53:32.891Z,-0.65
2019-01-06T14:58:56.320Z,-0.85
2019-01-06T15:04:18.554Z,-0.79
2019-01-06T15:09:41.131Z,-0.90
2019-01-06T15:15:08.341Z,-0.87
2019-01-06T15:20:50.167Z,-0.88
2019-01-06T15:26:17.755Z,-0.87
2019-01-06T15:31:39.617Z,-0.89
2019-01-06T15:37:15.742Z,-0.87
2019-01-06T15:42:45.352Z,-0.91
2019-01-06T15:48:07.818Z,-1.01
2019-01-06T15:53:41.646Z,-1.00
2019-01-06T15:59:03.650Z,-1.09
2019-01-06T16:04:27.024Z,-1.02
2019-01-06T16:09:44.866Z,-1.04
2019-01-06T16:15:08.527Z,-0.98
2019-01-06T16:20:46.022Z,-0.97
2019-01-06T16:26:18.677Z,-1.02
2019-01-06T16:31:44.727Z,-0.90
2019-01-06T16:37:20.479Z,-0.95
2019-01-06T16:42:53.667Z,-0.86
2019-01-06T16:48:20.918Z,-0.83
2019-01-06T16:53:48.733Z,-0.79
2019-01-06T16:59:06.765Z,-0.83
2019-01-06T17:04:36.631Z,-0.89
2019-01-06T17:10:12.407Z,-0.89
2019-01-06T17:15:38.768Z,-0.69
2019-01-06T17:21:09.355Z,-0.80
2019-01-06T17:26:33.158Z,-0.81
2019-01-06T17:32:03.187Z,-0.82
2019-01-06T17:37:42.079Z,-1.08
2019-01-06T17:43:03.964Z,-1.18
2019-01-06T17:48:26.734Z,-1.13
2019-01-06T17:54:04.524Z,-1.15
2019-01-06T17:59:26.631Z,-1.24
2019-01-06T18:04:52.963Z,-1.28
2019-01-06T18:10:21.829Z,-1.42
2019-01-06T18:15:45.031Z,-1.45
2019-01-06T18:21:22.219Z,-1.32
2019-01-06T18:26:44.434Z,-1.43
2019-01-06T18:32:11.357Z,-1.38
2019-01-06T18:37:34.743Z,-1.33
2019-01-06T18:43:02.757Z,-1.28
2019-01-06T18:48:29.084Z,-1.40
2019-01-06T18:53:59.423Z,-1.45
2019-01-06T18:59:28.891Z,-1.28
2019-01-06T19:04:55.384Z,-1.20
2019-01-06T19:10:17.706Z,-1.17
2019-01-06T19:15:39.651Z,-1.10
2019-01-06T19:21:02.673Z,-1.26
2019-01-06T19:26:32.440Z,-1.35
2019-01-06T19:32:01.809Z,-1.24
2019-01-06T19:37:23.576Z,-1.34
2019-01-06T19:42:54.368Z,-1.36
2019-01-06T19:48:27.968Z,-1.44
2019-01-06T19:53:54.841Z,-1.57
2019-01-06T19:59:18.904Z,-1.67
2019-01-06T20:04:41.174Z,-1.66
2019-01-06T20:10:16.514Z,-1.68
2019-01-06T20:15:52.293Z,-1.50
2019-01-06T20:21:15.935Z,-1.49
2019-01-06T20:26:38.441Z,-1.37
2019-01-06T20:32:00.994Z,-1.25
2019-01-06T20:37:36.754Z,-1.29
2019-01-06T20:43:04.455Z,-1.26
2019-01-06T20:48:49.561Z,-1.31
2019-01-06T20:54:24.299Z,-1.35
2019-01-06T20:59:49.794Z,-1.33
2019-01-06T21:05:10.300Z,-1.37
2019-01-06T21:10:26.169Z,-1.35
2019-01-06T21:15:52.089Z,-1.33
2019-01-06T21:21:14.636Z,-1.33
2019-01-06T21:26:38.345Z,-1.33
2019-01-06T21:32:14.235Z,-1.28
2019-01-06T21:37:40.669Z,-1.27
2019-01-06T21:43:07.002Z,-1.25
2019-01-06T21:48:30.363Z,-1.47
2019-01-06T21:54:03.813Z,-1.34
2019-01-06T21:59:16.066Z,-1.36
2019-01-06T22:04:38.594Z,-1.46
2019-01-06T22:10:11.011Z,-1.43
2019-01-06T22:15:40.318Z,-1.41
2019-01-06T22:21:06.676Z,-1.48
2019-01-06T22:26:31.520Z,-1.54
2019-01-06T22:32:15.748Z,-1.67
2019-01-06T22:37:45.834Z,-1.61
2019-01-06T22:43:09.284Z,-1.61
2019-01-06T22:48:40.658Z,-1.94
2019-01-06T22:54:02.739Z,-1.93
2019-01-06T22:59:33.080Z,-1.92
2019-01-06T23:05:07.219Z,-2.09
2019-01-06T23:10:30.677Z,-1.98
2019-01-06T23:15:52.932Z,-1.81
2019-01-06T23:21:31.548Z,-1.78
2019-01-06T23:26:54.988Z,-1.95
2019-01-06T23:32:24.740Z,-1.94
2019-01-06T23:37:47.003Z,-2.08
2019-01-06T23:43:10.721Z,-2.32
2019-01-06T23:48:46.345Z,-2.17
2019-01-06T23:54:13.205Z,-2.13
2019-01-06T23:59:31.116Z,-2.09
